createdAt,value
2018-10-12T00:00:48.716Z,26.20
2018-10-12T00:03:20.816Z,25.30
2018-10-12T00:05:52.798Z,25.00
2018-10-12T00:08:24.570Z,25.57
2018-10-12T00:10:56.953Z,25.72
2018-10-12T00:13:28.913Z,23.60
2018-10-12T00:16:00.769Z,23.17
2018-10-12T00:18:32.709Z,23.77
2018-10-12T00:21:05.063Z,25.68
2018-10-12T00:23:39.840Z,25.70
2018-10-12T00:26:11.621Z,24.67
2018-10-12T00:28:43.570Z,24.15
2018-10-12T00:31:15.453Z,24.27
2018-10-12T00:33:47.420Z,22.75
2018-10-12T00:36:19.363Z,23.62
2018-10-12T00:38:51.405Z,26.10
2018-10-12T00:41:23.529Z,25.30
2018-10-12T00:43:55.792Z,27.90
2018-10-12T00:46:27.622Z,26.57
2018-10-12T00:49:01.424Z,24.43
2018-10-12T00:51:33.330Z,25.15
2018-10-12T00:54:05.760Z,25.85
2018-10-12T00:56:38.569Z,24.17
2018-10-12T00:59:10.835Z,22.93
2018-10-12T01:01:42.655Z,24.03
2018-10-12T01:04:14.496Z,21.83
2018-10-12T01:06:49.449Z,25.57
2018-10-12T01:09:21.702Z,24.72
2018-10-12T01:12:09.130Z,25.17
2018-10-12T01:14:41.537Z,25.68
2018-10-12T01:17:13.822Z,25.97
2018-10-12T01:19:46.284Z,27.05
2018-10-12T01:22:18.323Z,24.98
2018-10-12T01:24:50.170Z,24.57
2018-10-12T01:27:22.585Z,23.87
2018-10-12T01:29:54.848Z,25.03
2018-10-12T01:32:32.665Z,24.27
2018-10-12T01:35:04.688Z,26.23
2018-10-12T01:37:36.710Z,25.50
2018-10-12T01:40:12.904Z,25.02
2018-10-12T01:45:21.152Z,23.13
2018-10-12T01:47:54.159Z,24.15
2018-10-12T01:50:26.057Z,26.37
2018-10-12T01:52:57.949Z,26.10
2018-10-12T01:55:30.615Z,24.20
2018-10-12T01:58:02.733Z,26.62
2018-10-12T02:00:35.161Z,25.67
2018-10-12T02:03:08.081Z,25.65
2018-10-12T02:05:40.056Z,25.43
2018-10-12T02:08:12.188Z,23.57
2018-10-12T02:10:44.064Z,26.53
2018-10-12T02:13:16.312Z,26.33
2018-10-12T02:15:48.604Z,27.05
2018-10-12T02:18:21.840Z,26.00
2018-10-12T02:20:53.851Z,26.07
2018-10-12T02:23:25.528Z,24.50
2018-10-12T02:25:57.525Z,24.95
2018-10-12T02:28:29.556Z,23.37
2018-10-12T02:31:03.092Z,25.23
2018-10-12T02:33:35.392Z,25.27
2018-10-12T02:36:07.564Z,24.92
2018-10-12T02:38:40.081Z,23.80
2018-10-12T02:41:12.443Z,26.55
2018-10-12T02:43:44.378Z,24.60
2018-10-12T02:46:17.012Z,23.22
2018-10-12T02:48:49.726Z,23.67
2018-10-12T02:51:21.682Z,25.37
2018-10-12T02:53:54.418Z,23.47
2018-10-12T02:56:26.938Z,26.87
2018-10-12T02:58:58.761Z,25.10
2018-10-12T03:01:31.214Z,27.47
2018-10-12T03:06:39.496Z,27.27
2018-10-12T03:09:12.557Z,26.50
2018-10-12T03:11:44.301Z,26.77
2018-10-12T03:16:52.821Z,26.60
2018-10-12T03:19:24.804Z,28.40
2018-10-12T03:21:56.774Z,23.20
2018-10-12T03:24:29.164Z,26.63
2018-10-12T03:27:01.537Z,26.33
2018-10-12T03:29:33.648Z,27.73
2018-10-12T03:32:06.823Z,27.40
2018-10-12T03:34:38.755Z,25.70
2018-10-12T03:37:18.229Z,26.93
2018-10-12T03:39:50.239Z,25.07
2018-10-12T03:42:26.297Z,23.30
2018-10-12T03:44:58.236Z,24.80
2018-10-12T03:47:30.463Z,25.73
2018-10-12T03:50:02.664Z,23.35
2018-10-12T03:52:35.573Z,24.77
2018-10-12T03:55:07.762Z,24.27
2018-10-12T03:57:40.069Z,24.30
2018-10-12T04:00:12.146Z,22.77
2018-10-12T04:02:44.482Z,24.27
2018-10-12T04:05:16.690Z,28.27
2018-10-12T04:07:48.682Z,23.30
2018-10-12T04:10:21.355Z,24.07
2018-10-12T04:12:54.260Z,26.60
2018-10-12T04:15:27.223Z,24.20
2018-10-12T04:17:59.160Z,26.97
2018-10-12T04:20:30.839Z,27.83
2018-10-12T04:23:02.747Z,25.63
2018-10-12T04:25:34.809Z,26.83
2018-10-12T04:28:06.834Z,26.02
2018-10-12T04:30:38.895Z,26.47
2018-10-12T04:33:11.291Z,26.10
2018-10-12T04:35:43.560Z,25.43
2018-10-12T04:38:15.487Z,27.70
2018-10-12T04:41:06.901Z,26.48
2018-10-12T04:43:38.755Z,25.23
2018-10-12T04:46:14.211Z,26.03
2018-10-12T04:48:48.264Z,27.52
2018-10-12T04:51:31.902Z,26.70
2018-10-12T04:56:41.106Z,25.30
2018-10-12T04:59:13.171Z,28.17
2018-10-12T05:01:45.885Z,25.00
2018-10-12T05:04:17.790Z,24.18
2018-10-12T05:06:49.684Z,26.80
2018-10-12T05:09:21.800Z,26.45
2018-10-12T05:14:29.580Z,25.20
2018-10-12T05:17:01.476Z,24.00
2018-10-12T05:19:33.717Z,23.90
2018-10-12T05:22:06.520Z,26.66
2018-10-12T05:27:15.323Z,28.70
2018-10-12T05:29:47.626Z,27.00
2018-10-12T05:34:57.246Z,24.07
2018-10-12T05:37:29.081Z,26.17
2018-10-12T05:42:36.611Z,25.30
2018-10-12T05:45:08.271Z,25.82
2018-10-12T05:47:40.075Z,28.37
2018-10-12T05:52:48.711Z,26.63
2018-10-12T05:55:20.748Z,28.83
2018-10-12T05:57:52.701Z,27.05
2018-10-12T06:00:24.594Z,29.23
2018-10-12T06:02:56.721Z,24.75
2018-10-12T06:05:28.722Z,24.97
2018-10-12T06:08:00.660Z,28.23
2018-10-12T06:10:32.662Z,26.67
2018-10-12T06:13:04.373Z,27.43
2018-10-12T06:15:36.141Z,29.40
2018-10-12T06:18:10.433Z,23.92
2018-10-12T06:20:43.595Z,28.70
2018-10-12T06:23:20.311Z,25.52
2018-10-12T06:25:52.922Z,26.10
2018-10-12T06:28:24.689Z,26.05
2018-10-12T06:30:57.208Z,30.02
2018-10-12T06:33:30.096Z,26.03
2018-10-12T06:36:02.534Z,29.65
2018-10-12T06:38:34.629Z,25.80
2018-10-12T06:41:06.460Z,25.43
2018-10-12T06:43:38.448Z,28.50
2018-10-12T06:46:10.188Z,25.67
2018-10-12T06:48:42.593Z,25.30
2018-10-12T06:51:14.490Z,26.52
2018-10-12T06:53:46.678Z,29.63
2018-10-12T06:56:18.834Z,28.85
2018-10-12T06:58:50.862Z,25.20
2018-10-12T07:01:23.545Z,26.82
2018-10-12T07:03:56.125Z,27.50
2018-10-12T07:06:28.515Z,24.80
2018-10-12T07:09:03.910Z,25.03
2018-10-12T07:11:36.075Z,25.60
2018-10-12T07:14:07.868Z,28.10
2018-10-12T07:16:42.431Z,28.30
2018-10-12T07:19:14.545Z,26.45
2018-10-12T07:21:46.338Z,27.27
2018-10-12T07:24:18.104Z,27.43
2018-10-12T07:26:49.914Z,26.87
2018-10-12T07:29:21.646Z,28.57
2018-10-12T07:31:53.892Z,28.37
2018-10-12T07:34:25.577Z,28.57
2018-10-12T07:36:58.299Z,24.52
2018-10-12T07:39:30.107Z,29.23
2018-10-12T07:42:01.928Z,25.65
2018-10-12T07:44:34.834Z,27.70
2018-10-12T07:47:06.942Z,28.67
2018-10-12T07:49:38.974Z,31.20
2018-10-12T07:52:10.969Z,26.70
2018-10-12T07:54:43.079Z,26.25
2018-10-12T07:57:16.139Z,28.30
2018-10-12T07:59:47.979Z,27.90
2018-10-12T08:02:19.683Z,28.67
2018-10-12T08:04:51.491Z,27.37
2018-10-12T08:07:23.219Z,31.48
2018-10-12T08:09:55.673Z,33.37
2018-10-12T08:12:28.019Z,28.67
2018-10-12T08:14:59.953Z,29.35
2018-10-12T08:17:32.253Z,28.62
2018-10-12T08:20:06.053Z,30.50
2018-10-12T08:22:38.771Z,32.63
2018-10-12T08:25:11.611Z,31.40
2018-10-12T08:30:20.518Z,32.43
2018-10-12T08:32:53.120Z,30.35
2018-10-12T08:35:25.720Z,33.80
2018-10-12T08:37:57.879Z,32.48
2018-10-12T08:40:29.488Z,35.13
2018-10-12T08:43:01.559Z,35.35
2018-10-12T08:45:33.323Z,33.97
2018-10-12T08:48:05.116Z,33.90
2018-10-12T08:50:40.710Z,33.70
2018-10-12T08:53:16.975Z,33.45
2018-10-12T08:55:49.346Z,34.63
2018-10-12T08:58:21.319Z,34.58
2018-10-12T09:00:53.121Z,33.75
2018-10-12T09:03:24.847Z,33.03
2018-10-12T09:05:56.747Z,32.87
2018-10-12T09:08:28.461Z,33.50
2018-10-12T09:11:00.162Z,32.77
2018-10-12T09:13:32.538Z,30.07
2018-10-12T09:16:04.166Z,33.80
2018-10-12T09:18:35.782Z,32.42
2018-10-12T09:21:08.171Z,30.95
2018-10-12T09:23:40.111Z,32.83
2018-10-12T09:26:12.326Z,31.40
2018-10-12T09:28:43.966Z,31.77
2018-10-12T09:31:17.130Z,29.10
2018-10-12T09:33:48.738Z,31.00
2018-10-12T09:36:20.990Z,32.60
2018-10-12T09:38:53.241Z,33.92
2018-10-12T09:41:26.749Z,31.10
2018-10-12T09:43:58.610Z,31.17
2018-10-12T09:46:30.402Z,30.30
2018-10-12T09:49:02.354Z,31.25
2018-10-12T09:51:34.340Z,28.27
2018-10-12T09:54:06.516Z,26.65
2018-10-12T09:56:39.293Z,31.20
2018-10-12T09:59:10.987Z,30.08
2018-10-12T10:01:48.013Z,29.30
2018-10-12T10:04:35.382Z,28.17
2018-10-12T10:07:07.055Z,28.83
2018-10-12T10:09:39.714Z,28.93
2018-10-12T10:12:12.260Z,26.53
2018-10-12T10:14:44.016Z,24.80
2018-10-12T10:17:15.745Z,26.13
2018-10-12T10:19:47.621Z,26.10
2018-10-12T10:22:19.741Z,24.85
2018-10-12T10:27:27.093Z,24.23
2018-10-12T10:29:59.445Z,22.97
2018-10-12T10:32:31.396Z,23.43
2018-10-12T10:35:02.783Z,24.15
2018-10-12T10:37:34.776Z,20.97
2018-10-12T10:40:07.255Z,19.50
2018-10-12T10:42:46.963Z,17.70
2018-10-12T10:45:18.407Z,17.87
2018-10-12T10:47:51.327Z,18.40
2018-10-12T10:52:58.748Z,19.57
2018-10-12T10:55:30.166Z,17.87
2018-10-12T10:58:02.311Z,18.95
2018-10-12T11:00:34.153Z,20.93
2018-10-12T11:03:06.679Z,20.40
2018-10-12T11:05:38.067Z,21.37
2018-10-12T11:08:10.441Z,21.57
2018-10-12T11:10:42.159Z,21.97
2018-10-12T11:13:14.240Z,22.63
2018-10-12T11:15:46.318Z,24.73
2018-10-12T11:18:18.217Z,26.87
2018-10-12T11:20:50.241Z,27.77
2018-10-12T11:23:22.352Z,26.17
2018-10-12T11:25:54.249Z,25.53
2018-10-12T11:28:26.500Z,27.37
2018-10-12T11:30:58.256Z,27.02
2018-10-12T11:33:31.683Z,24.30
2018-10-12T11:36:03.446Z,26.77
2018-10-12T11:38:35.318Z,25.07
2018-10-12T11:41:07.383Z,23.92
2018-10-12T11:43:40.922Z,24.10
2018-10-12T11:46:12.630Z,23.50
2018-10-12T11:51:20.508Z,23.30
2018-10-12T11:53:52.014Z,21.95
2018-10-12T11:56:24.107Z,21.30
2018-10-12T11:58:55.651Z,21.07
2018-10-12T12:01:27.621Z,20.57
2018-10-12T12:03:59.453Z,20.50
2018-10-12T12:06:31.444Z,19.93
2018-10-12T12:09:03.525Z,18.45
2018-10-12T12:11:35.796Z,18.02
2018-10-12T12:14:07.603Z,18.15
2018-10-12T12:16:43.100Z,17.50
2018-10-12T12:19:18.768Z,17.85
2018-10-12T12:21:50.218Z,16.07
2018-10-12T12:24:26.239Z,12.78
2018-10-12T12:26:58.149Z,12.35
2018-10-12T12:29:29.977Z,12.97
2018-10-12T12:32:01.854Z,12.93
2018-10-12T12:34:33.911Z,14.70
2018-10-12T12:37:06.478Z,13.72
2018-10-12T12:39:38.546Z,13.23
2018-10-12T12:42:10.439Z,12.33
2018-10-12T12:44:42.076Z,13.40
2018-10-12T12:47:13.534Z,12.90
2018-10-12T12:49:45.056Z,13.72
2018-10-12T12:52:16.922Z,14.18
2018-10-12T12:54:49.143Z,15.83
2018-10-12T12:57:21.221Z,15.05
2018-10-12T12:59:52.785Z,14.15
2018-10-12T13:02:27.195Z,13.53
2018-10-12T13:04:58.717Z,13.53
2018-10-12T13:07:30.758Z,12.98
2018-10-12T13:10:02.680Z,12.43
2018-10-12T13:12:34.265Z,12.90
2018-10-12T13:15:06.412Z,12.20
2018-10-12T13:17:38.061Z,12.65
2018-10-12T13:20:09.850Z,11.25
2018-10-12T13:22:41.400Z,11.75
2018-10-12T13:25:13.397Z,11.97
2018-10-12T13:27:44.955Z,12.13
2018-10-12T13:30:16.589Z,11.30
2018-10-12T13:32:48.257Z,11.12
2018-10-12T13:35:20.230Z,10.82
2018-10-12T13:37:51.843Z,10.90
2018-10-12T13:40:23.771Z,10.72
2018-10-12T13:42:55.914Z,11.17
2018-10-12T13:45:27.440Z,10.30
2018-10-12T13:48:05.843Z,10.93
2018-10-12T13:50:37.563Z,11.05
2018-10-12T13:53:09.630Z,10.70
2018-10-12T13:55:47.712Z,10.00
2018-10-12T14:00:55.249Z,9.63
2018-10-12T14:03:26.787Z,11.10
2018-10-12T14:05:58.463Z,10.18
2018-10-12T14:08:30.052Z,9.70
2018-10-12T14:11:01.842Z,9.48
2018-10-12T14:13:33.764Z,9.53
2018-10-12T14:16:06.478Z,9.83
2018-10-12T14:18:38.023Z,9.15
2018-10-12T14:21:09.643Z,8.33
2018-10-12T14:23:41.191Z,9.03
2018-10-12T14:26:13.500Z,8.70
2018-10-12T14:28:45.655Z,8.95
2018-10-12T14:31:17.900Z,10.53
2018-10-12T14:33:49.562Z,10.13
2018-10-12T14:36:21.212Z,11.20
2018-10-12T14:38:54.088Z,9.85
2018-10-12T14:41:25.578Z,9.08
2018-10-12T14:43:57.397Z,9.50
2018-10-12T14:46:29.597Z,8.18
2018-10-12T14:49:01.161Z,8.95
2018-10-12T14:51:33.124Z,11.10
2018-10-12T14:54:05.658Z,11.65
2018-10-12T14:56:37.308Z,9.40
2018-10-12T14:59:08.987Z,10.03
2018-10-12T15:01:40.835Z,9.80
2018-10-12T15:04:13.002Z,11.12
2018-10-12T15:06:44.813Z,11.10
2018-10-12T15:09:16.624Z,11.43
2018-10-12T15:11:48.959Z,10.72
2018-10-12T15:14:35.962Z,12.57
2018-10-12T15:17:08.378Z,12.85
2018-10-12T15:19:41.250Z,11.48
2018-10-12T15:22:13.612Z,11.60
2018-10-12T15:24:45.449Z,13.20
2018-10-12T15:27:17.593Z,13.05
2018-10-12T15:29:49.685Z,12.43
2018-10-12T15:36:23.224Z,13.65
2018-10-12T15:38:56.170Z,13.43
2018-10-12T15:41:28.273Z,14.18
2018-10-12T15:44:00.059Z,11.67
2018-10-12T15:46:34.396Z,11.60
2018-10-12T15:51:48.098Z,11.93
2018-10-12T15:54:20.555Z,12.13
2018-10-12T15:59:29.321Z,14.00
2018-10-12T16:02:00.880Z,13.67
2018-10-12T16:04:32.625Z,14.47
2018-10-12T16:07:05.275Z,14.87
2018-10-12T16:09:37.058Z,17.20
2018-10-12T16:12:09.228Z,19.00
2018-10-12T16:14:40.909Z,16.77
2018-10-12T16:17:12.935Z,17.83
2018-10-12T16:19:44.606Z,16.52
2018-10-12T16:22:16.358Z,16.80
2018-10-12T16:25:05.006Z,18.35
2018-10-12T16:27:36.965Z,18.48
2018-10-12T16:30:09.207Z,15.78
2018-10-12T16:32:41.006Z,16.82
2018-10-12T16:35:13.826Z,16.30
2018-10-12T16:37:52.851Z,15.30
2018-10-12T16:40:25.027Z,15.32
2018-10-12T16:42:56.915Z,17.73
2018-10-12T16:45:28.820Z,20.90
2018-10-12T16:48:00.733Z,18.50
2018-10-12T16:50:33.052Z,21.50
2018-10-12T16:53:04.806Z,20.62
2018-10-12T16:55:37.032Z,22.77
2018-10-12T16:58:09.705Z,25.23
2018-10-12T17:00:41.500Z,29.10
2018-10-12T17:03:13.893Z,30.35
2018-10-12T17:05:45.660Z,29.72
2018-10-12T17:08:17.688Z,32.93
2018-10-12T17:10:49.734Z,28.97
2018-10-12T17:13:21.506Z,27.15
2018-10-12T17:15:53.453Z,32.67
2018-10-12T17:18:25.544Z,32.23
2018-10-12T17:20:57.657Z,29.27
2018-10-12T17:23:30.194Z,29.10
2018-10-12T17:26:02.296Z,28.87
2018-10-12T17:28:35.497Z,30.80
2018-10-12T17:33:45.027Z,30.10
2018-10-12T17:36:17.861Z,27.90
2018-10-12T17:38:49.831Z,27.45
2018-10-12T17:41:23.191Z,28.70
2018-10-12T17:43:55.883Z,25.33
2018-10-12T17:46:28.816Z,22.37
2018-10-12T17:49:01.461Z,23.73
2018-10-12T17:54:47.694Z,27.67
2018-10-12T17:57:23.000Z,26.23
2018-10-12T17:59:55.128Z,30.87
2018-10-12T18:02:27.199Z,35.48
2018-10-12T18:04:59.264Z,33.30
2018-10-12T18:07:31.594Z,31.75
2018-10-12T18:10:03.809Z,31.15
2018-10-12T18:15:13.663Z,26.90
2018-10-12T18:17:45.863Z,26.93
2018-10-12T18:20:18.073Z,27.48
2018-10-12T18:22:50.175Z,25.80
2018-10-12T18:25:22.159Z,27.32
2018-10-12T18:27:54.068Z,26.00
2018-10-12T18:30:26.238Z,27.17
2018-10-12T18:32:58.938Z,28.07
2018-10-12T18:35:32.024Z,27.13
2018-10-12T18:38:04.208Z,25.52
2018-10-12T18:40:36.555Z,27.93
2018-10-12T18:43:08.475Z,24.15
2018-10-12T18:45:41.076Z,29.83
2018-10-12T18:48:13.382Z,32.73
2018-10-12T18:50:46.676Z,28.70
2018-10-12T18:53:19.198Z,34.05
2018-10-12T18:55:51.303Z,34.00
2018-10-12T19:01:04.817Z,28.60
2018-10-12T19:06:14.327Z,26.83
2018-10-12T19:08:47.212Z,27.77
2018-10-12T19:13:55.138Z,26.63
2018-10-12T19:16:28.120Z,28.10
2018-10-12T19:19:00.847Z,27.32
2018-10-12T19:21:32.475Z,29.27
2018-10-12T19:24:05.668Z,26.20
2018-10-12T19:26:38.968Z,25.43
2018-10-12T19:29:11.141Z,28.30
2018-10-12T19:31:42.957Z,26.17
2018-10-12T19:34:15.370Z,26.90
2018-10-12T19:36:47.430Z,25.48
2018-10-12T19:39:19.706Z,25.72
2018-10-12T19:41:51.728Z,25.20
2018-10-12T19:47:00.052Z,28.20
2018-10-12T19:52:09.223Z,23.63
2018-10-12T19:54:50.797Z,25.88
2018-10-12T19:57:23.709Z,27.13
2018-10-12T19:59:56.966Z,27.63
2018-10-12T20:02:29.177Z,26.83
2018-10-12T20:05:02.129Z,29.10
2018-10-12T20:07:34.655Z,28.17
2018-10-12T20:10:09.187Z,27.07
2018-10-12T20:12:41.552Z,27.52
2018-10-12T20:15:14.504Z,28.90
2018-10-12T20:17:46.852Z,28.57
2018-10-12T20:20:20.256Z,29.07
2018-10-12T20:22:53.200Z,28.35
2018-10-12T20:25:26.273Z,28.92
2018-10-12T20:27:59.067Z,28.67
2018-10-12T20:30:31.443Z,30.85
2018-10-12T20:33:03.501Z,27.93
2018-10-12T20:35:35.989Z,28.70
2018-10-12T20:38:08.294Z,28.83
2018-10-12T20:40:41.208Z,31.00
2018-10-12T20:43:13.846Z,29.45
2018-10-12T20:45:46.251Z,32.27
2018-10-12T20:48:18.837Z,27.30
2018-10-12T20:50:51.081Z,25.08
2018-10-12T20:53:22.902Z,25.70
2018-10-12T20:55:55.758Z,28.83
2018-10-12T20:58:27.760Z,26.33
2018-10-12T21:01:00.319Z,27.58
2018-10-12T21:03:32.801Z,25.60
2018-10-12T21:06:05.063Z,29.52
2018-10-12T21:08:37.287Z,24.50
2018-10-12T21:11:09.545Z,26.20
2018-10-12T21:13:42.126Z,25.60
2018-10-12T21:16:14.561Z,25.67
2018-10-12T21:18:46.966Z,27.53
2018-10-12T21:21:19.014Z,28.60
2018-10-12T21:23:51.286Z,26.27
2018-10-12T21:26:23.729Z,29.90
2018-10-12T21:28:55.841Z,29.03
2018-10-12T21:31:28.194Z,27.37
2018-10-12T21:34:00.388Z,26.10
2018-10-12T21:36:32.556Z,26.27
2018-10-12T21:39:05.785Z,28.93
2018-10-12T21:41:37.807Z,29.27
2018-10-12T21:44:10.255Z,30.85
2018-10-12T21:46:43.205Z,28.50
2018-10-12T21:49:15.380Z,29.00
2018-10-12T21:54:24.472Z,29.07
2018-10-12T21:56:56.623Z,30.27
2018-10-12T21:59:29.264Z,32.80
2018-10-12T22:02:01.871Z,33.65
2018-10-12T22:04:34.849Z,34.37
2018-10-12T22:07:06.966Z,33.85
2018-10-12T22:09:39.380Z,34.78
2018-10-12T22:12:11.724Z,34.00
2018-10-12T22:14:43.799Z,33.65
2018-10-12T22:17:15.766Z,28.73
2018-10-12T22:19:48.155Z,29.42
2018-10-12T22:22:20.116Z,31.60
2018-10-12T22:24:52.432Z,30.85
2018-10-12T22:27:24.532Z,29.90
2018-10-12T22:29:56.187Z,28.30
2018-10-12T22:32:29.038Z,29.40
2018-10-12T22:35:01.200Z,29.27
2018-10-12T22:37:33.178Z,32.05
2018-10-12T22:40:05.607Z,33.77
2018-10-12T22:42:37.775Z,33.13
2018-10-12T22:47:48.513Z,29.07
2018-10-12T22:50:20.749Z,32.85
2018-10-12T22:52:52.833Z,30.53
2018-10-12T22:55:25.308Z,29.55
2018-10-12T22:58:01.774Z,28.95
2018-10-12T23:00:34.891Z,33.87
2018-10-12T23:03:08.989Z,31.93
2018-10-12T23:05:40.969Z,27.42
2018-10-12T23:08:13.815Z,28.42
2018-10-12T23:10:46.819Z,31.42
2018-10-12T23:13:19.100Z,30.07
2018-10-12T23:15:50.965Z,28.38
2018-10-12T23:18:23.208Z,30.08
2018-10-12T23:20:55.288Z,26.80
2018-10-12T23:23:27.893Z,32.40
2018-10-12T23:25:59.747Z,31.50
2018-10-12T23:28:32.510Z,30.23
2018-10-12T23:31:04.575Z,28.83
2018-10-12T23:34:06.748Z,32.43
2018-10-12T23:36:38.953Z,30.83
2018-10-12T23:39:11.291Z,33.07
2018-10-12T23:41:43.399Z,33.18
2018-10-12T23:44:15.391Z,34.85
2018-10-12T23:46:47.741Z,29.90
2018-10-12T23:49:19.886Z,33.90
2018-10-12T23:51:53.242Z,32.60
2018-10-12T23:57:01.910Z,33.93
2018-10-12T23:59:34.181Z,29.03
